Miedwie — C6XP5 — position and weather

sailwx.info

Track history (hours):
 
Tides and Currents Weather Stations Pressure Air Temp Water Temp Dewpoint Dewpoint Depression Visibility Wind Speed Wind Dir Waves Ship Positions

Miedwie

Last reported at 2014-Jul-31 22:33 UTC. Time now 2014-Aug-01 13:52 UTC.
Position N 44°01' W 076°29'.

Length 190 m; draft 7 m.

Type: Cargo ship. MMSI: 311018300.

Date/timePositionNaut miles runAvg speedWind from/ knotsBaromVisibWave heightAir tempDewpointWater temp
2014-Jul-31 22:33N 44°01' W 076°29'1210.4
2014-Jul-31 21:27N 44°10' W 076°19'910.1
2014-Jul-31 20:33N 44°14' W 076°08'89 7.4
2014-Jul-31 08:33N 45°07' W 074°28'1110.5
2014-Jul-31 07:33N 45°13' W 074°16'10 9.6
2014-Jul-31 06:33N 45°13' W 074°02'7 6.8
2014-Jul-31 05:33N 45°18' W 073°56'1 1.0
2014-Jul-31 04:33N 45°19' W 073°55'5 5.0
2014-Jul-31 03:33N 45°22' W 073°49'8 7.6
2014-Jul-31 02:33N 45°24' W 073°39'4 3.7
2014-Jul-31 01:33N 45°24' W 073°34'4 4.5
2014-Jul-31 00:33N 45°28' W 073°30'2 1.9
2014-Jul-30 23:33N 45°30' W 073°31'4 3.9
2014-Jul-30 22:33N 45°34' W 073°31'8 8.0
2014-Jul-30 21:33N 45°41' W 073°27'10 9.9
2014-Jul-30 20:33N 45°49' W 073°18'11 9.9
2014-Jul-30 19:29N 45°59' W 073°11'9 9.5
2014-Jul-30 18:32N 46°05' W 073°02'1010.1
2014-Jul-30 17:32N 46°12' W 072°52'1110.8
2014-Jul-30 16:33N 46°16' W 072°38'8 7.6
2014-Jul-30 15:33N 46°22' W 072°30'10 9.8
2014-Jul-30 14:33N 46°26' W 072°18'9 9.3
2014-Jul-30 13:32N 46°33' W 072°08'8 8.3
2014-Jul-30 12:33N 46°37' W 071°58'  
Track history (hours):
 
Tides and Currents Weather Stations Pressure Air Temp Water Temp Dewpoint Dewpoint Depression Visibility Wind Speed Wind Dir Waves Ship Positions

Miedwie

Last reported at 2014-Jul-31 22:33 UTC. Time now 2014-Aug-01 13:52 UTC.
Position N 44°01' W 076°29'.

Length 190 m; draft 7 m.

Type: Cargo ship. MMSI: 311018300.

Date/timePositionNaut miles runAvg speedWind from/ knotsBaromVisibWave heightAir tempDewpointWater temp
2014-Jul-31 22:33N 44°01' W 076°29'1210.4
2014-Jul-31 21:27N 44°10' W 076°19'910.1
2014-Jul-31 20:33N 44°14' W 076°08'89 7.4
2014-Jul-31 08:33N 45°07' W 074°28'1110.5
2014-Jul-31 07:33N 45°13' W 074°16'10 9.6
2014-Jul-31 06:33N 45°13' W 074°02'7 6.8
2014-Jul-31 05:33N 45°18' W 073°56'1 1.0
2014-Jul-31 04:33N 45°19' W 073°55'5 5.0
2014-Jul-31 03:33N 45°22' W 073°49'8 7.6
2014-Jul-31 02:33N 45°24' W 073°39'4 3.7
2014-Jul-31 01:33N 45°24' W 073°34'4 4.5
2014-Jul-31 00:33N 45°28' W 073°30'2 1.9
2014-Jul-30 23:33N 45°30' W 073°31'4 3.9
2014-Jul-30 22:33N 45°34' W 073°31'8 8.0
2014-Jul-30 21:33N 45°41' W 073°27'10 9.9
2014-Jul-30 20:33N 45°49' W 073°18'11 9.9
2014-Jul-30 19:29N 45°59' W 073°11'9 9.5
2014-Jul-30 18:32N 46°05' W 073°02'1010.1
2014-Jul-30 17:32N 46°12' W 072°52'1110.8
2014-Jul-30 16:33N 46°16' W 072°38'8 7.6
2014-Jul-30 15:33N 46°22' W 072°30'10 9.8
2014-Jul-30 14:33N 46°26' W 072°18'9 9.3
2014-Jul-30 13:32N 46°33' W 072°08'8 8.3
2014-Jul-30 12:33N 46°37' W 071°58'  

Dump ship's entire track history